createdAt,value
2018-11-07T00:01:01.273Z,17.82
2018-11-07T00:05:05.726Z,18.67
2018-11-07T00:09:09.830Z,16.85
2018-11-07T00:13:13.576Z,17.23
2018-11-07T00:17:17.521Z,16.45
2018-11-07T00:21:21.330Z,18.02
2018-11-07T00:25:25.055Z,16.62
2018-11-07T00:29:28.780Z,16.70
2018-11-07T00:33:32.509Z,18.35
2018-11-07T00:37:36.220Z,16.40
2018-11-07T00:41:40.016Z,18.77
2018-11-07T00:45:43.789Z,17.32
2018-11-07T00:49:47.676Z,17.07
2018-11-07T00:53:51.431Z,15.45
2018-11-07T00:57:55.201Z,15.98
2018-11-07T01:01:58.949Z,19.63
2018-11-07T01:06:02.668Z,17.40
2018-11-07T01:10:07.261Z,17.17
2018-11-07T01:14:10.993Z,18.23
2018-11-07T01:18:14.711Z,16.42
2018-11-07T01:22:18.432Z,16.55
2018-11-07T01:26:22.152Z,18.93
2018-11-07T01:30:25.872Z,16.40
2018-11-07T01:34:29.619Z,18.42
2018-11-07T01:38:33.356Z,17.62
2018-11-07T01:42:37.038Z,16.80
2018-11-07T01:46:40.758Z,18.20
2018-11-07T01:50:44.521Z,18.73
2018-11-07T01:54:48.288Z,17.90
2018-11-07T01:58:52.015Z,17.73
2018-11-07T02:02:55.724Z,18.10
2018-11-07T02:06:59.464Z,18.02
2018-11-07T02:11:03.220Z,15.83
2018-11-07T02:15:07.684Z,15.10
2018-11-07T02:19:11.418Z,15.03
2018-11-07T02:23:15.262Z,13.40
2018-11-07T02:27:19.000Z,14.10
2018-11-07T02:31:22.749Z,13.38
2018-11-07T02:35:33.117Z,14.73
2018-11-07T02:39:36.878Z,14.55
2018-11-07T02:43:40.582Z,14.73
2018-11-07T02:47:44.344Z,15.33
2018-11-07T02:51:48.143Z,14.18
2018-11-07T02:55:51.874Z,13.80
2018-11-07T02:59:55.592Z,14.93
2018-11-07T03:03:59.285Z,14.93
2018-11-07T03:08:03.026Z,14.13
2018-11-07T03:12:06.776Z,15.00
2018-11-07T03:16:10.491Z,14.50
2018-11-07T03:20:14.239Z,13.68
2018-11-07T03:24:17.911Z,13.20
2018-11-07T03:28:21.639Z,12.83
2018-11-07T03:32:25.358Z,14.00
2018-11-07T03:36:29.125Z,13.70
2018-11-07T03:40:32.940Z,13.48
2018-11-07T03:44:36.650Z,13.93
2018-11-07T03:48:40.360Z,13.30
2018-11-07T03:52:44.261Z,13.72
2018-11-07T03:56:48.075Z,13.13
2018-11-07T04:00:53.353Z,14.63
2018-11-07T04:04:57.095Z,12.40
2018-11-07T04:09:00.839Z,13.10
2018-11-07T04:13:04.767Z,14.58
2018-11-07T04:17:08.493Z,13.08
2018-11-07T04:21:12.225Z,13.43
2018-11-07T04:25:15.961Z,12.93
2018-11-07T04:29:19.709Z,13.10
2018-11-07T04:33:23.415Z,13.43
2018-11-07T04:37:27.148Z,12.43
2018-11-07T04:41:30.861Z,13.88
2018-11-07T04:45:34.593Z,12.93
2018-11-07T04:49:38.313Z,14.25
2018-11-07T04:53:42.191Z,14.00
2018-11-07T04:57:45.888Z,12.60
2018-11-07T05:01:49.593Z,12.58
2018-11-07T05:05:53.747Z,12.40
2018-11-07T05:09:57.474Z,13.20
2018-11-07T05:14:01.241Z,14.78
2018-11-07T05:18:04.978Z,13.10
2018-11-07T05:22:08.744Z,11.83
2018-11-07T05:26:12.523Z,12.03
2018-11-07T05:30:16.187Z,11.75
2018-11-07T05:34:19.992Z,11.65
2018-11-07T05:38:23.707Z,11.40
2018-11-07T05:42:27.483Z,11.60
2018-11-07T05:46:31.276Z,11.18
2018-11-07T05:50:35.047Z,11.75
2018-11-07T05:54:38.802Z,10.90
2018-11-07T05:58:42.568Z,22.27
2018-11-07T06:02:46.342Z,11.78
2018-11-07T06:06:50.102Z,11.80
2018-11-07T06:10:53.812Z,12.78
2018-11-07T06:14:57.528Z,11.53
2018-11-07T06:19:01.287Z,11.35
2018-11-07T06:23:05.144Z,11.90
2018-11-07T06:27:08.849Z,12.88
2018-11-07T06:31:12.533Z,12.40
2018-11-07T06:35:16.317Z,12.00
2018-11-07T06:39:20.051Z,11.43
2018-11-07T06:43:23.852Z,11.35
2018-11-07T06:47:27.596Z,10.98
2018-11-07T06:51:31.328Z,11.10
2018-11-07T06:55:35.077Z,11.57
2018-11-07T06:59:38.843Z,11.80
2018-11-07T07:03:42.657Z,10.80
2018-11-07T07:07:46.681Z,11.27
2018-11-07T07:11:50.370Z,11.93
2018-11-07T07:15:54.101Z,10.93
2018-11-07T07:19:57.836Z,11.40
2018-11-07T07:24:01.764Z,10.87
2018-11-07T07:28:05.759Z,12.00
2018-11-07T07:32:09.544Z,12.82
2018-11-07T07:36:13.384Z,12.93
2018-11-07T07:40:17.460Z,11.70
2018-11-07T07:44:21.195Z,11.97
2018-11-07T07:48:24.930Z,11.97
2018-11-07T07:52:28.907Z,12.07
2018-11-07T07:56:32.603Z,12.03
2018-11-07T08:01:05.848Z,12.23
2018-11-07T08:05:09.698Z,11.88
2018-11-07T08:09:14.168Z,13.00
2018-11-07T08:13:17.964Z,13.18
2018-11-07T08:17:21.737Z,13.27
2018-11-07T08:21:25.492Z,12.25
2018-11-07T08:25:29.204Z,11.75
2018-11-07T08:29:32.921Z,11.50
2018-11-07T08:33:36.753Z,10.90
2018-11-07T08:37:41.338Z,11.40
2018-11-07T08:41:45.090Z,11.00
2018-11-07T08:45:48.806Z,9.85
2018-11-07T08:49:52.596Z,8.60
2018-11-07T08:53:56.313Z,10.13
2018-11-07T08:58:00.497Z,9.83
2018-11-07T09:02:04.467Z,9.37
2018-11-07T09:06:08.292Z,8.95
2018-11-07T09:10:13.965Z,7.65
2018-11-07T09:14:17.731Z,7.20
2018-11-07T09:18:21.411Z,5.67
2018-11-07T09:22:25.126Z,5.60
2018-11-07T09:26:28.869Z,5.70
2018-11-07T09:30:32.611Z,5.40
2018-11-07T09:34:36.315Z,4.57
2018-11-07T09:38:39.979Z,4.77
2018-11-07T09:42:44.316Z,4.33
2018-11-07T09:46:48.047Z,4.50
2018-11-07T09:50:51.766Z,5.33
2018-11-07T09:54:55.497Z,5.93
2018-11-07T09:58:59.387Z,5.40
2018-11-07T10:03:03.473Z,6.45
2018-11-07T10:07:07.218Z,5.55
2018-11-07T10:11:11.005Z,5.65
2018-11-07T10:15:15.250Z,5.03
2018-11-07T10:19:19.046Z,5.03
2018-11-07T10:23:22.808Z,5.40
2018-11-07T10:27:26.727Z,4.63
2018-11-07T10:31:30.387Z,4.77
2018-11-07T10:35:34.192Z,5.30
2018-11-07T10:39:37.972Z,4.90
2018-11-07T10:43:41.782Z,4.77
2018-11-07T10:47:46.476Z,5.43
2018-11-07T10:51:50.357Z,4.70
2018-11-07T10:55:54.006Z,4.50
2018-11-07T10:59:57.793Z,4.60
2018-11-07T11:04:01.463Z,4.60
2018-11-07T11:08:05.761Z,4.43
2018-11-07T11:12:09.746Z,4.37
2018-11-07T11:16:13.479Z,4.13
2018-11-07T11:20:17.249Z,4.27
2018-11-07T11:24:21.118Z,4.73
2018-11-07T11:28:24.816Z,4.03
2018-11-07T11:32:28.539Z,4.17
2018-11-07T11:36:32.259Z,4.07
2018-11-07T11:40:36.031Z,3.43
2018-11-07T11:44:39.692Z,3.50
2018-11-07T11:48:43.378Z,3.53
2018-11-07T11:52:48.157Z,3.73
2018-11-07T11:56:51.843Z,3.50
2018-11-07T12:00:55.632Z,3.57
2018-11-07T12:05:04.533Z,3.13
2018-11-07T12:09:08.917Z,2.90
2018-11-07T12:13:12.782Z,3.30
2018-11-07T12:17:16.776Z,3.13
2018-11-07T12:21:20.616Z,2.63
2018-11-07T12:25:24.499Z,2.80
2018-11-07T12:29:28.349Z,3.07
2018-11-07T12:33:32.111Z,2.97
2018-11-07T12:37:35.916Z,3.00
2018-11-07T12:41:39.667Z,3.90
2018-11-07T12:45:43.304Z,3.13
2018-11-07T12:49:47.249Z,3.03
2018-11-07T12:53:51.045Z,3.20
2018-11-07T12:57:54.951Z,3.57
2018-11-07T13:01:58.720Z,3.47
2018-11-07T13:06:02.528Z,2.87
2018-11-07T13:10:08.935Z,3.40
2018-11-07T13:14:12.617Z,3.50
2018-11-07T13:18:16.818Z,3.00
2018-11-07T13:22:20.722Z,2.93
2018-11-07T13:26:24.448Z,4.00
2018-11-07T13:30:28.175Z,3.20
2018-11-07T13:34:31.947Z,2.83
2018-11-07T13:38:36.112Z,3.03
2018-11-07T13:42:39.657Z,2.97
2018-11-07T13:46:43.391Z,3.23
2018-11-07T13:50:47.215Z,3.23
2018-11-07T13:54:50.932Z,2.77
2018-11-07T13:58:54.687Z,2.90
2018-11-07T14:02:59.118Z,3.20
2018-11-07T14:07:02.824Z,3.60
2018-11-07T14:11:06.564Z,3.80
2018-11-07T14:15:12.464Z,3.00
2018-11-07T14:19:16.271Z,3.60
2018-11-07T14:23:20.152Z,3.23
2018-11-07T14:27:24.137Z,2.80
2018-11-07T14:31:27.892Z,3.63
2018-11-07T14:35:31.652Z,3.93
2018-11-07T14:39:35.336Z,4.17
2018-11-07T14:43:39.192Z,3.20
2018-11-07T14:47:43.309Z,2.73
2018-11-07T14:51:47.027Z,3.50
2018-11-07T14:55:50.793Z,3.10
2018-11-07T14:59:54.495Z,3.40
2018-11-07T15:03:58.244Z,4.17
2018-11-07T15:08:01.955Z,3.47
2018-11-07T15:12:06.248Z,3.17
2018-11-07T15:16:09.937Z,3.83
2018-11-07T15:20:14.654Z,3.47
2018-11-07T15:24:18.364Z,3.63
2018-11-07T15:28:22.072Z,3.40
2018-11-07T15:32:25.781Z,3.90
2018-11-07T15:36:29.557Z,3.77
2018-11-07T15:40:33.252Z,3.33
2018-11-07T15:44:36.952Z,3.23
2018-11-07T15:48:40.636Z,3.87
2018-11-07T15:52:44.896Z,3.67
2018-11-07T15:56:48.598Z,3.43
2018-11-07T16:00:52.307Z,3.60
2018-11-07T16:04:56.075Z,3.57
2018-11-07T16:09:04.076Z,3.70
2018-11-07T16:13:08.002Z,4.00
2018-11-07T16:17:11.751Z,3.80
2018-11-07T16:21:15.521Z,4.20
2018-11-07T16:25:19.225Z,4.07
2018-11-07T16:29:22.889Z,4.03
2018-11-07T16:33:27.108Z,3.67
2018-11-07T16:37:30.938Z,3.40
2018-11-07T16:41:35.013Z,4.17
2018-11-07T16:45:38.732Z,4.40
2018-11-07T16:49:42.664Z,4.43
2018-11-07T16:53:46.344Z,4.57
2018-11-07T16:57:50.056Z,4.27
2018-11-07T17:01:53.759Z,4.77
2018-11-07T17:05:57.449Z,4.60
2018-11-07T17:10:01.133Z,3.87
2018-11-07T17:14:05.176Z,4.20
2018-11-07T17:18:08.867Z,4.20
2018-11-07T17:22:12.563Z,4.50
2018-11-07T17:26:22.943Z,4.20
2018-11-07T17:30:26.636Z,4.63
2018-11-07T17:34:30.296Z,3.77
2018-11-07T17:38:34.085Z,3.73
2018-11-07T17:42:38.133Z,3.13
2018-11-07T17:46:41.859Z,3.43
2018-11-07T17:50:45.600Z,2.20
2018-11-07T17:54:49.382Z,2.57
2018-11-07T17:58:53.080Z,2.50
2018-11-07T18:02:56.816Z,2.53
2018-11-07T18:07:00.548Z,2.17
2018-11-07T18:11:04.592Z,1.90
2018-11-07T18:15:09.113Z,2.17
2018-11-07T18:19:13.268Z,2.00
2018-11-07T18:23:17.176Z,1.87
2018-11-07T18:27:21.176Z,2.30
2018-11-07T18:31:24.833Z,2.07
2018-11-07T18:35:28.630Z,2.10
2018-11-07T18:39:32.504Z,2.10
2018-11-07T18:43:36.245Z,2.70
2018-11-07T18:47:41.227Z,1.90
2018-11-07T18:51:44.963Z,1.93
2018-11-07T18:55:48.628Z,2.43
2018-11-07T18:59:52.315Z,2.30
2018-11-07T19:03:56.045Z,2.20
2018-11-07T19:07:59.731Z,1.70
2018-11-07T19:12:03.427Z,2.10
2018-11-07T19:16:07.104Z,1.77
2018-11-07T19:20:12.112Z,1.57
2018-11-07T19:24:15.781Z,1.33
2018-11-07T19:28:19.493Z,1.80
2018-11-07T19:32:23.205Z,1.87
2018-11-07T19:36:26.889Z,2.50
2018-11-07T19:40:30.593Z,1.97
2018-11-07T19:44:34.312Z,1.90
2018-11-07T19:48:38.069Z,1.87
2018-11-07T19:52:41.984Z,1.50
2018-11-07T19:56:45.645Z,1.80
2018-11-07T20:00:49.430Z,1.70
2018-11-07T20:04:53.130Z,2.10
2018-11-07T20:08:56.925Z,1.60
2018-11-07T20:13:00.669Z,1.73
2018-11-07T20:17:04.600Z,3.20
2018-11-07T20:21:08.436Z,2.10
2018-11-07T20:25:13.079Z,1.80
2018-11-07T20:29:16.896Z,2.10
2018-11-07T20:33:20.605Z,1.93
2018-11-07T20:37:24.294Z,2.20
2018-11-07T20:41:28.065Z,1.57
2018-11-07T20:45:31.685Z,2.20
2018-11-07T20:49:35.448Z,1.30
2018-11-07T20:53:39.148Z,2.07
2018-11-07T20:57:42.876Z,1.60
2018-11-07T21:01:46.612Z,1.73
2018-11-07T21:05:50.336Z,1.40
2018-11-07T21:09:54.078Z,1.73
2018-11-07T21:13:57.805Z,1.70
2018-11-07T21:18:01.508Z,1.83
2018-11-07T21:22:08.744Z,1.70
2018-11-07T21:26:12.542Z,1.60
2018-11-07T21:30:16.285Z,1.40
2018-11-07T21:34:19.980Z,1.80
2018-11-07T21:38:23.657Z,1.70
2018-11-07T21:42:27.408Z,1.60
2018-11-07T21:46:31.132Z,1.50
2018-11-07T21:50:34.828Z,1.40
2018-11-07T21:54:38.705Z,1.90
2018-11-07T21:58:42.325Z,2.00
2018-11-07T22:02:46.470Z,1.57
2018-11-07T22:06:50.148Z,1.70
2018-11-07T22:10:53.875Z,1.50
2018-11-07T22:14:57.657Z,1.73
2018-11-07T22:19:01.372Z,1.60
2018-11-07T22:23:05.104Z,2.00
2018-11-07T22:27:08.846Z,2.10
2018-11-07T22:31:12.540Z,1.60
2018-11-07T22:35:17.437Z,1.70
2018-11-07T22:39:21.172Z,1.83
2018-11-07T22:43:24.907Z,1.77
2018-11-07T22:47:28.624Z,2.00
2018-11-07T22:51:32.470Z,1.60
2018-11-07T22:55:36.194Z,1.63
2018-11-07T22:59:40.036Z,1.70
2018-11-07T23:03:44.102Z,1.87
2018-11-07T23:07:48.225Z,1.70
2018-11-07T23:11:51.945Z,1.77
2018-11-07T23:15:55.677Z,1.63
2018-11-07T23:19:59.445Z,1.70
2018-11-07T23:24:03.255Z,2.20
2018-11-07T23:28:07.016Z,1.80
2018-11-07T23:32:10.748Z,2.07
2018-11-07T23:36:14.480Z,1.87
2018-11-07T23:40:18.332Z,2.13
2018-11-07T23:44:22.058Z,1.77
2018-11-07T23:48:25.802Z,2.10
2018-11-07T23:52:34.952Z,2.17
2018-11-07T23:56:38.696Z,2.07
